createdAt,value
2023-01-23T00:01:36.443Z,102354.84
2023-01-23T00:04:38.008Z,102355.72
2023-01-23T00:07:39.525Z,102357.53
2023-01-23T00:10:40.996Z,102358.44
2023-01-23T00:13:42.851Z,102353.97
2023-01-23T00:16:44.359Z,102360.25
2023-01-23T00:19:45.918Z,102344.97
2023-01-23T00:22:47.409Z,102350.41
2023-01-23T00:25:48.901Z,102352.25
2023-01-23T00:28:51.112Z,102358.44
2023-01-23T00:31:53.683Z,102358.53
2023-01-23T00:34:57.118Z,102349.53
2023-01-23T00:37:58.622Z,102357.53
2023-01-23T00:41:02.164Z,102358.31
2023-01-23T00:44:03.975Z,102355.50
2023-01-23T00:47:06.315Z,102356.34
2023-01-23T00:50:08.425Z,102351.78
2023-01-23T00:53:10.374Z,102350.94
2023-01-23T00:56:12.361Z,102350.06
2023-01-23T00:59:14.023Z,102353.63
2023-01-23T01:02:15.522Z,102356.44
2023-01-23T01:05:18.214Z,102366.44
2023-01-23T01:08:22.100Z,102359.31
2023-01-23T01:11:24.362Z,102365.69
2023-01-23T01:14:25.886Z,102370.38
2023-01-23T01:17:27.383Z,102371.47
2023-01-23T01:20:29.188Z,102372.44
2023-01-23T01:23:30.660Z,102381.56
2023-01-23T01:26:32.309Z,102386.09
2023-01-23T01:29:33.932Z,102382.50
2023-01-23T01:32:40.284Z,102389.72
2023-01-23T01:35:42.184Z,102392.50
2023-01-23T01:38:44.438Z,102393.59
2023-01-23T01:41:46.014Z,102393.59
2023-01-23T01:45:01.635Z,102398.91
2023-01-23T01:48:03.231Z,102407.16
2023-01-23T01:51:28.600Z,102407.16
2023-01-23T01:54:36.594Z,102416.28
2023-01-23T01:57:44.894Z,102417.25
2023-01-23T02:00:46.581Z,102408.38
2023-01-23T02:03:50.785Z,102410.19
2023-01-23T02:06:54.210Z,102416.63
2023-01-23T02:09:56.224Z,102423.03
2023-01-23T02:13:19.419Z,102420.19
2023-01-23T02:16:26.202Z,102414.91
2023-01-23T02:19:57.897Z,102422.03
2023-01-23T02:23:06.717Z,102424.84
2023-01-23T02:26:14.073Z,102424.00
2023-01-23T02:29:19.048Z,102428.56
2023-01-23T02:32:27.947Z,102428.66
2023-01-23T02:35:31.098Z,102433.97
2023-01-23T02:38:50.926Z,102434.97
2023-01-23T02:41:57.234Z,102443.22
2023-01-23T02:45:11.994Z,102441.59
2023-01-23T02:48:14.151Z,102446.16
2023-01-23T02:51:17.119Z,102445.38
2023-01-23T02:54:20.437Z,102441.91
2023-01-23T02:57:21.991Z,102445.59
2023-01-23T03:00:23.693Z,102448.31
2023-01-23T03:03:25.299Z,102451.03
2023-01-23T03:06:28.384Z,102444.84
2023-01-23T03:09:29.904Z,102447.47
2023-01-23T03:12:31.453Z,102449.28
2023-01-23T03:15:38.391Z,102447.47
2023-01-23T03:18:53.433Z,102445.59
2023-01-23T03:21:55.762Z,102445.72
2023-01-23T03:24:57.818Z,102448.41
2023-01-23T03:27:59.565Z,102450.38
2023-01-23T03:31:01.153Z,102445.94
2023-01-23T03:34:02.841Z,102444.22
2023-01-23T03:37:08.738Z,102451.44
2023-01-23T03:40:38.654Z,102447.78
2023-01-23T03:43:40.938Z,102447.00
2023-01-23T03:46:42.554Z,102447.00
2023-01-23T03:49:44.301Z,102447.00
2023-01-23T03:52:46.002Z,102444.31
2023-01-23T03:55:47.749Z,102442.56
2023-01-23T03:58:49.836Z,102452.34
2023-01-23T04:01:53.742Z,102447.88
2023-01-23T04:04:55.362Z,102453.19
2023-01-23T04:07:56.908Z,102452.13
2023-01-23T04:11:06.123Z,102449.19
2023-01-23T04:14:07.647Z,102449.19
2023-01-23T04:17:10.637Z,102449.09
2023-01-23T04:20:13.143Z,102450.81
2023-01-23T04:23:17.062Z,102456.22
2023-01-23T04:26:18.547Z,102456.22
2023-01-23T04:29:20.341Z,102455.16
2023-01-23T04:32:22.606Z,102456.00
2023-01-23T04:35:24.345Z,102460.47
2023-01-23T04:38:28.578Z,102463.91
2023-01-23T04:41:32.313Z,102464.69
2023-01-23T04:44:37.840Z,102464.69
2023-01-23T04:47:58.027Z,102462.84
2023-01-23T04:51:00.052Z,102463.72
2023-01-23T04:54:01.961Z,102459.03
2023-01-23T04:57:03.676Z,102464.59
2023-01-23T05:00:07.212Z,102460.88
2023-01-23T05:03:08.800Z,102457.41
2023-01-23T05:06:12.290Z,102469.03
2023-01-23T05:09:13.983Z,102465.56
2023-01-23T05:12:23.409Z,102467.41
2023-01-23T05:15:24.995Z,102465.56
2023-01-23T05:18:26.581Z,102465.69
2023-01-23T05:21:28.593Z,102468.63
2023-01-23T05:24:30.093Z,102468.63
2023-01-23T05:27:32.706Z,102473.16
2023-01-23T05:30:34.764Z,102475.13
2023-01-23T05:33:50.559Z,102482.38
2023-01-23T05:36:52.051Z,102482.38
2023-01-23T05:39:53.596Z,102472.59
2023-01-23T05:42:56.072Z,102470.88
2023-01-23T05:46:23.723Z,102479.13
2023-01-23T05:49:27.235Z,102482.91
2023-01-23T05:52:28.766Z,102485.63
2023-01-23T05:55:31.032Z,102486.53
2023-01-23T05:58:32.701Z,102498.09
2023-01-23T06:01:51.092Z,102509.84
2023-01-23T06:05:11.245Z,102511.56
2023-01-23T06:08:32.442Z,102514.19
2023-01-23T06:11:33.990Z,102522.97
2023-01-23T06:14:35.708Z,102531.03
2023-01-23T06:17:39.635Z,102531.03
2023-01-23T06:20:41.245Z,102537.94
2023-01-23T06:23:43.454Z,102535.16
2023-01-23T06:26:44.988Z,102546.75
2023-01-23T06:29:47.225Z,102541.22
2023-01-23T06:32:48.867Z,102541.97
2023-01-23T06:36:02.669Z,102546.31
2023-01-23T06:39:04.891Z,102546.41
2023-01-23T06:42:14.980Z,102543.69
2023-01-23T06:45:20.887Z,102551.09
2023-01-23T06:48:22.702Z,102551.09
2023-01-23T06:51:24.407Z,102563.91
2023-01-23T06:54:26.344Z,102569.44
2023-01-23T06:57:34.831Z,102567.69
2023-01-23T07:00:37.509Z,102579.50
2023-01-23T07:03:42.570Z,102586.78
2023-01-23T07:06:44.288Z,102590.50
2023-01-23T07:09:48.906Z,102587.00
2023-01-23T07:12:57.427Z,102584.28
2023-01-23T07:15:59.048Z,102596.22
2023-01-23T07:19:01.581Z,102597.31
2023-01-23T07:22:06.206Z,102599.25
2023-01-23T07:25:08.570Z,102603.81
2023-01-23T07:28:10.088Z,102612.94
2023-01-23T07:31:11.647Z,102616.63
2023-01-23T07:34:13.289Z,102623.03
2023-01-23T07:37:14.768Z,102620.31
2023-01-23T07:40:16.596Z,102618.56
2023-01-23T07:43:18.427Z,102626.59
2023-01-23T07:46:20.491Z,102621.25
2023-01-23T07:49:21.992Z,102622.16
2023-01-23T07:52:23.731Z,102627.47
2023-01-23T07:55:25.202Z,102626.69
2023-01-23T07:58:26.671Z,102633.00
2023-01-23T08:01:28.139Z,102633.09
2023-01-23T08:04:29.647Z,102642.09
2023-01-23T08:07:31.394Z,102637.53
2023-01-23T08:10:32.931Z,102649.28
2023-01-23T08:13:34.413Z,102648.38
2023-01-23T08:16:37.135Z,102640.25
2023-01-23T08:19:38.843Z,102639.31
2023-01-23T08:22:40.907Z,102643.09
2023-01-23T08:25:42.420Z,102649.38
2023-01-23T08:28:45.487Z,102635.81
2023-01-23T08:31:46.994Z,102634.09
2023-01-23T08:34:48.901Z,102643.19
2023-01-23T08:37:50.461Z,102649.59
2023-01-23T08:40:55.141Z,102638.75
2023-01-23T08:44:01.423Z,102644.25
2023-01-23T08:47:03.223Z,102654.25
2023-01-23T08:50:05.882Z,102646.97
2023-01-23T08:53:07.433Z,102650.66
2023-01-23T08:56:18.039Z,102650.47
2023-01-23T08:59:19.536Z,102651.44
2023-01-23T09:02:22.067Z,102670.31
2023-01-23T09:05:23.743Z,102654.03
2023-01-23T09:08:25.212Z,102655.66
2023-01-23T09:11:26.676Z,102663.72
2023-01-23T09:14:28.276Z,102670.88
2023-01-23T09:17:29.780Z,102671.72
2023-01-23T09:20:31.319Z,102677.06
2023-01-23T09:23:32.785Z,102671.56
2023-01-23T09:26:34.289Z,102672.41
2023-01-23T09:29:36.418Z,102678.69
2023-01-23T09:32:37.905Z,102688.69
2023-01-23T09:35:39.391Z,102691.28
2023-01-23T09:38:40.907Z,102694.00
2023-01-23T09:41:45.327Z,102699.25
2023-01-23T09:44:59.030Z,102696.41
2023-01-23T09:48:09.656Z,102699.97
2023-01-23T09:51:34.191Z,102706.19
2023-01-23T09:54:55.669Z,102713.38
2023-01-23T09:58:01.030Z,102719.75
2023-01-23T10:01:02.707Z,102719.75
2023-01-23T10:04:05.657Z,102716.81
2023-01-23T10:07:38.354Z,102718.47
2023-01-23T10:10:49.200Z,102715.00
2023-01-23T10:14:17.351Z,102715.00
2023-01-23T10:18:00.497Z,102722.25
2023-01-23T10:21:20.673Z,102727.88
2023-01-23T10:24:40.855Z,102721.50
2023-01-23T10:27:45.621Z,102717.91
2023-01-23T10:30:52.074Z,102717.81
2023-01-23T10:34:05.086Z,102718.59
2023-01-23T10:37:40.535Z,102720.31
2023-01-23T10:41:00.434Z,102722.06
2023-01-23T10:44:02.248Z,102713.81
2023-01-23T10:47:19.787Z,102722.63
2023-01-23T10:50:35.805Z,102714.50
2023-01-23T10:53:37.378Z,102721.72
2023-01-23T10:56:54.343Z,102722.53
2023-01-23T10:59:55.933Z,102722.63
2023-01-23T11:03:18.596Z,102729.00
2023-01-23T11:06:22.297Z,102726.28
2023-01-23T11:09:23.775Z,102709.38
2023-01-23T11:12:32.890Z,102716.44
2023-01-23T11:15:40.880Z,102712.84
2023-01-23T11:18:54.200Z,102708.28
2023-01-23T11:21:59.447Z,102702.84
2023-01-23T11:25:27.449Z,102706.34
2023-01-23T11:28:33.898Z,102702.72
2023-01-23T11:31:36.127Z,102699.88
2023-01-23T11:34:44.082Z,102689.88
2023-01-23T11:37:45.562Z,102691.59
2023-01-23T11:40:48.104Z,102685.09
2023-01-23T11:43:49.628Z,102687.81
2023-01-23T11:47:17.552Z,102695.88
2023-01-23T11:50:24.979Z,102687.72
2023-01-23T11:53:36.972Z,102685.88
2023-01-23T11:56:51.418Z,102691.06
2023-01-23T11:59:52.817Z,102687.50
2023-01-23T12:03:18.855Z,102684.69
2023-01-23T12:06:32.157Z,102689.13
2023-01-23T12:09:52.114Z,102687.28
2023-01-23T12:12:59.643Z,102687.28
2023-01-23T12:16:09.985Z,102685.66
2023-01-23T12:19:20.575Z,102680.34
2023-01-23T12:22:47.458Z,102679.56
2023-01-23T12:26:11.892Z,102681.59
2023-01-23T12:29:31.510Z,102677.25
2023-01-23T12:32:42.212Z,102675.59
2023-01-23T12:36:21.273Z,102679.38
2023-01-23T12:39:50.579Z,102677.75
2023-01-23T12:42:55.071Z,102679.72
2023-01-23T12:46:11.776Z,102686.97
2023-01-23T12:49:28.480Z,102681.53
2023-01-23T12:52:32.656Z,102690.47
2023-01-23T12:55:43.230Z,102680.38
2023-01-23T12:58:51.916Z,102685.81
2023-01-23T13:02:22.621Z,102692.97
2023-01-23T13:05:29.545Z,102687.53
2023-01-23T13:08:57.988Z,102703.81
2023-01-23T13:12:22.844Z,102703.81
2023-01-23T13:15:40.472Z,102699.28
2023-01-23T13:19:15.715Z,102702.09
2023-01-23T13:22:32.327Z,102708.38
2023-01-23T13:25:38.045Z,102694.03
2023-01-23T13:28:48.670Z,102709.25
2023-01-23T13:31:52.578Z,102705.78
2023-01-23T13:34:54.175Z,102703.94
2023-01-23T13:37:55.795Z,102706.75
2023-01-23T13:41:08.428Z,102710.31
2023-01-23T13:44:17.953Z,102718.38
2023-01-23T14:25:33.371Z,102743.56
2023-01-23T14:28:34.982Z,102742.56
2023-01-23T14:31:37.379Z,102748.88
2023-01-23T14:34:40.047Z,102747.06
2023-01-23T14:37:41.675Z,102739.88
2023-01-23T14:40:50.642Z,102739.81
2023-01-23T14:43:55.087Z,102748.81
2023-01-23T14:47:00.351Z,102755.97
2023-01-23T14:50:03.327Z,102762.38
2023-01-23T14:53:11.771Z,102756.94
2023-01-23T14:56:13.967Z,102755.09
2023-01-23T14:59:29.888Z,102751.53
2023-01-23T15:02:31.566Z,102747.94
2023-01-23T15:05:33.488Z,102753.44
2023-01-23T15:08:36.645Z,102757.91
2023-01-23T15:11:38.179Z,102758.00
2023-01-23T15:14:40.136Z,102757.91
2023-01-23T15:17:45.232Z,102753.38
2023-01-23T15:20:54.621Z,102754.25
2023-01-23T15:24:21.461Z,102737.09
2023-01-23T15:27:34.294Z,102732.53
2023-01-23T15:30:35.838Z,102729.00
2023-01-23T15:33:41.152Z,102729.00
2023-01-23T15:36:52.922Z,102722.53
2023-01-23T15:39:54.381Z,102721.59
2023-01-23T15:43:06.277Z,102720.38
2023-01-23T15:46:11.371Z,102715.81
2023-01-23T15:49:24.382Z,102724.72
2023-01-23T15:52:47.859Z,102729.94
2023-01-23T15:55:49.357Z,102732.47
2023-01-23T15:58:50.890Z,102745.94
2023-01-23T16:01:53.134Z,102746.13
2023-01-23T16:04:55.466Z,102742.44
2023-01-23T16:08:01.056Z,102748.72
2023-01-23T16:11:02.603Z,102750.41
2023-01-23T16:14:04.186Z,102736.53
2023-01-23T16:17:16.261Z,102747.75
2023-01-23T16:20:22.301Z,102748.88
2023-01-23T16:23:31.269Z,102750.22
2023-01-23T16:26:37.417Z,102739.94
2023-01-23T16:29:38.926Z,102730.59
2023-01-23T16:32:40.730Z,102731.28
2023-01-23T16:35:43.007Z,102730.00
2023-01-23T16:38:53.429Z,102737.97
2023-01-23T16:41:55.194Z,102729.72
2023-01-23T16:44:57.557Z,102729.59
2023-01-23T16:47:59.526Z,102733.94
2023-01-23T16:51:23.828Z,102736.44
2023-01-23T16:54:26.203Z,102744.50
2023-01-23T16:57:27.721Z,102732.56
2023-01-23T17:00:34.807Z,102737.91
2023-01-23T17:03:40.714Z,102731.50
2023-01-23T17:06:42.351Z,102734.19
2023-01-23T17:09:44.783Z,102735.94
2023-01-23T17:12:48.757Z,102735.94
2023-01-23T17:15:52.934Z,102734.84
2023-01-23T17:18:57.018Z,102749.31
2023-01-23T17:22:00.823Z,102739.09
2023-01-23T17:25:02.312Z,102749.09
2023-01-23T17:28:12.695Z,102748.97
2023-01-23T17:31:24.358Z,102749.88
2023-01-23T17:34:45.210Z,102754.41
2023-01-23T17:37:54.779Z,102757.03
2023-01-23T17:40:56.312Z,102757.03
2023-01-23T17:43:57.787Z,102763.31
2023-01-23T17:46:59.319Z,102764.19
2023-01-23T17:50:01.249Z,102750.63
2023-01-23T17:53:02.752Z,102764.19
2023-01-23T17:56:04.540Z,102761.47
2023-01-23T17:59:06.062Z,102758.75
2023-01-23T18:02:28.122Z,102761.28
2023-01-23T18:05:29.811Z,102764.97
2023-01-23T18:08:31.267Z,102754.00
2023-01-23T18:11:33.164Z,102753.03
2023-01-23T18:15:08.868Z,102753.69
2023-01-23T18:18:25.261Z,102747.38
2023-01-23T18:21:27.764Z,102752.72
2023-01-23T18:24:31.911Z,102759.00
2023-01-23T18:27:37.484Z,102752.63
2023-01-23T18:30:56.346Z,102766.06
2023-01-23T18:34:09.816Z,102769.56
2023-01-23T18:37:24.358Z,102764.91
2023-01-23T18:40:31.459Z,102766.63
2023-01-23T18:43:43.583Z,102765.66
2023-01-23T18:46:45.263Z,102765.66
2023-01-23T18:49:46.943Z,102770.13
2023-01-23T18:53:07.219Z,102759.91
2023-01-23T18:56:14.140Z,102762.59
2023-01-23T18:59:22.000Z,102772.38
2023-01-23T19:02:45.025Z,102774.03
2023-01-23T19:05:46.732Z,102765.88
2023-01-23T19:08:49.013Z,102765.78
2023-01-23T19:11:56.505Z,102772.09
2023-01-23T19:15:00.915Z,102780.22
2023-01-23T19:18:40.285Z,102784.03
2023-01-23T19:21:42.386Z,102787.06
2023-01-23T19:24:44.173Z,102790.00
2023-01-23T19:27:52.349Z,102793.56
2023-01-23T19:30:54.288Z,102799.00
2023-01-23T19:33:56.527Z,102799.91
2023-01-23T19:36:58.060Z,102800.75
2023-01-23T19:39:59.569Z,102801.63
2023-01-23T19:43:13.547Z,102801.72
2023-01-23T19:46:15.402Z,102802.50
2023-01-23T19:49:16.968Z,102807.06
2023-01-23T19:52:18.486Z,102805.19
2023-01-23T19:55:30.417Z,102808.78
2023-01-23T19:58:32.286Z,102817.84
2023-01-23T20:01:35.373Z,102816.06
2023-01-23T20:04:36.817Z,102815.22
2023-01-23T20:07:38.635Z,102822.50
2023-01-23T20:10:40.197Z,102817.06
2023-01-23T20:13:42.069Z,102817.16
2023-01-23T20:16:43.910Z,102824.53
2023-01-23T20:19:45.560Z,102827.25
2023-01-23T20:22:47.149Z,102833.66
2023-01-23T20:25:56.712Z,102829.97
2023-01-23T20:28:58.238Z,102834.53
2023-01-23T20:31:59.814Z,102845.38
2023-01-23T20:35:01.426Z,102839.09
2023-01-23T20:38:02.938Z,102834.66
2023-01-23T20:41:10.138Z,102837.25
2023-01-23T20:44:11.702Z,102835.59
2023-01-23T20:47:13.505Z,102840.16
2023-01-23T20:50:15.093Z,102833.00
2023-01-23T20:53:31.972Z,102825.81
2023-01-23T20:56:33.450Z,102829.31
2023-01-23T20:59:34.962Z,102827.66
2023-01-23T21:02:36.416Z,102823.09
2023-01-23T21:05:38.000Z,102823.97
2023-01-23T21:08:40.108Z,102821.25
2023-01-23T21:11:41.636Z,102812.25
2023-01-23T21:14:43.182Z,102813.09
2023-01-23T21:17:44.655Z,102809.53
2023-01-23T21:20:46.133Z,102809.44
2023-01-23T21:23:49.313Z,102805.84
2023-01-23T21:26:50.896Z,102813.88
2023-01-23T21:29:52.549Z,102819.22
2023-01-23T21:32:54.477Z,102826.38
2023-01-23T21:35:55.956Z,102830.84
2023-01-23T21:38:57.919Z,102821.94
2023-01-23T21:41:59.397Z,102824.66
2023-01-23T21:45:00.847Z,102826.50
2023-01-23T21:48:02.460Z,102827.38
2023-01-23T21:51:03.858Z,102828.31
2023-01-23T21:54:05.731Z,102827.47
2023-01-23T21:57:07.213Z,102825.72
2023-01-23T22:00:27.676Z,102824.94
2023-01-23T22:03:29.193Z,102831.38
2023-01-23T22:06:31.806Z,102831.38
2023-01-23T22:09:33.270Z,102831.47
2023-01-23T22:12:34.726Z,102824.31
2023-01-23T22:15:36.287Z,102830.69
2023-01-23T22:18:37.813Z,102823.53
2023-01-23T22:21:39.782Z,102823.63
2023-01-23T22:24:42.193Z,102829.19
2023-01-23T22:27:43.666Z,102827.41
2023-01-23T22:30:45.149Z,102829.25
2023-01-23T22:33:48.774Z,102831.13
2023-01-23T22:36:50.326Z,102822.09
2023-01-23T22:39:51.799Z,102822.19
2023-01-23T22:42:53.268Z,102827.63
2023-01-23T22:46:03.649Z,102833.72
2023-01-23T22:49:05.370Z,102834.69
2023-01-23T22:52:08.582Z,102824.81
2023-01-23T22:55:12.069Z,102828.28
2023-01-23T22:58:13.522Z,102829.34
2023-01-23T23:01:15.573Z,102827.63
2023-01-23T23:04:17.101Z,102825.91
2023-01-23T23:07:18.993Z,102832.06
2023-01-23T23:10:20.515Z,102835.78
2023-01-23T23:13:22.103Z,102835.88
2023-01-23T23:16:26.568Z,102830.44
2023-01-23T23:19:28.121Z,102826.97
2023-01-23T23:22:29.618Z,102834.22
2023-01-23T23:25:31.211Z,102837.84
2023-01-23T23:28:33.565Z,102841.50
2023-01-23T23:31:35.298Z,102833.47
2023-01-23T23:34:37.436Z,102837.16
2023-01-23T23:37:38.983Z,102834.56
2023-01-23T23:40:40.512Z,102840.00
2023-01-23T23:43:43.216Z,102840.06
2023-01-23T23:46:44.726Z,102849.22
2023-01-23T23:49:46.182Z,102833.00
2023-01-23T23:52:47.935Z,102819.53
2023-01-23T23:55:49.589Z,102832.34
2023-01-23T23:58:51.571Z,102823.31
